Oxford, Indiana
Current Conditions -  °F | °C
As of 11:54 AM on Thursday 23 Oct 2014 (Local Time) from KLAF Reporting Station
Clear Clear  
Wind Chill: 12°   Ceiling: Unl
Heat Index: 12°   Visibility: 10mi
Dew Point:   Wind: 8mph
Humidity: 69%   Direction: 180°S
Pressure: 30.23"   Gusts: NA
Location:  40.52°N, 87.25°W
Report Text: KLAF 231554Z 18007KT 10SM CLR 12/06 A3023 RMK AO2 SLP239 T01170061
Loading
Personal Weather Stations






























Interactive Weather Map
Tropical Storm Tracking
New forecast layout! Learn more

10-Day Weather Forecast

Advertisements
Track Severe Weather on mobile